createdAt,value
2018-07-03T00:00:52.808Z,15.99
2018-07-03T00:03:21.744Z,15.93
2018-07-03T00:05:50.268Z,15.88
2018-07-03T00:08:19.311Z,15.78
2018-07-03T00:10:47.935Z,15.77
2018-07-03T00:13:16.489Z,15.74
2018-07-03T00:15:45.030Z,15.71
2018-07-03T00:18:13.550Z,15.64
2018-07-03T00:20:42.058Z,15.63
2018-07-03T00:23:10.754Z,15.58
2018-07-03T00:25:39.272Z,15.53
2018-07-03T00:28:07.860Z,15.51
2018-07-03T00:30:36.631Z,15.46
2018-07-03T00:33:05.127Z,15.39
2018-07-03T00:35:33.639Z,15.30
2018-07-03T00:38:02.114Z,15.28
2018-07-03T00:40:30.925Z,15.27
2018-07-03T00:42:59.422Z,15.22
2018-07-03T00:45:28.030Z,15.19
2018-07-03T00:47:56.629Z,15.12
2018-07-03T00:50:25.122Z,15.01
2018-07-03T00:52:53.877Z,14.89
2018-07-03T00:55:22.404Z,14.87
2018-07-03T00:57:50.874Z,14.89
2018-07-03T01:00:31.428Z,14.90
2018-07-03T01:03:00.570Z,14.83
2018-07-03T01:05:29.331Z,14.82
2018-07-03T01:07:58.404Z,14.83
2018-07-03T01:10:27.781Z,14.68
2018-07-03T01:12:56.778Z,14.61
2018-07-03T01:15:26.299Z,14.57
2018-07-03T01:17:54.894Z,14.24
2018-07-03T01:20:23.427Z,14.31
2018-07-03T01:22:52.243Z,14.25
2018-07-03T01:25:20.812Z,14.22
2018-07-03T01:27:49.328Z,14.21
2018-07-03T01:30:18.569Z,14.13
2018-07-03T01:32:47.260Z,14.26
2018-07-03T01:35:16.091Z,14.15
2018-07-03T01:37:46.448Z,14.26
2018-07-03T01:40:15.026Z,14.05
2018-07-03T01:42:43.454Z,14.19
2018-07-03T01:45:12.280Z,14.22
2018-07-03T01:47:40.840Z,14.26
2018-07-03T01:50:09.412Z,14.17
2018-07-03T01:52:37.923Z,14.18
2018-07-03T01:55:07.017Z,14.11
2018-07-03T01:57:36.107Z,14.07
2018-07-03T02:00:05.470Z,14.08
2018-07-03T02:02:34.055Z,14.05
2018-07-03T02:05:02.593Z,14.01
2018-07-03T02:07:31.175Z,13.94
2018-07-03T02:09:59.886Z,13.90
2018-07-03T02:12:28.544Z,13.81
2018-07-03T02:14:57.059Z,13.76
2018-07-03T02:17:25.568Z,13.78
2018-07-03T02:19:54.153Z,13.72
2018-07-03T02:22:22.663Z,13.74
2018-07-03T02:24:51.251Z,13.66
2018-07-03T02:27:19.949Z,13.75
2018-07-03T02:29:48.467Z,13.66
2018-07-03T02:32:17.024Z,13.63
2018-07-03T02:34:45.550Z,13.59
2018-07-03T02:37:14.176Z,13.58
2018-07-03T02:39:42.899Z,13.53
2018-07-03T02:42:11.343Z,13.48
2018-07-03T02:44:39.935Z,13.38
2018-07-03T02:47:08.422Z,13.40
2018-07-03T02:49:36.909Z,13.35
2018-07-03T02:52:05.485Z,13.28
2018-07-03T02:54:33.997Z,13.28
2018-07-03T02:57:02.929Z,13.23
2018-07-03T02:59:31.387Z,13.17
2018-07-03T03:01:59.950Z,13.16
2018-07-03T03:04:28.659Z,13.12
2018-07-03T03:06:57.187Z,13.13
2018-07-03T03:09:25.747Z,13.11
2018-07-03T03:11:54.476Z,13.06
2018-07-03T03:14:23.062Z,13.02
2018-07-03T03:16:52.057Z,12.96
2018-07-03T03:19:20.569Z,12.91
2018-07-03T03:21:49.227Z,12.92
2018-07-03T03:24:17.809Z,12.93
2018-07-03T03:26:46.569Z,12.94
2018-07-03T03:29:15.082Z,12.93
2018-07-03T03:31:43.665Z,12.94
2018-07-03T03:34:12.397Z,12.91
2018-07-03T03:36:40.906Z,12.79
2018-07-03T03:39:09.720Z,12.81
2018-07-03T03:41:38.287Z,12.81
2018-07-03T03:44:06.799Z,12.78
2018-07-03T03:46:35.681Z,12.78
2018-07-03T03:49:04.425Z,12.79
2018-07-03T03:51:32.936Z,12.80
2018-07-03T03:54:01.531Z,12.79
2018-07-03T03:56:30.029Z,12.77
2018-07-03T03:58:58.553Z,12.81
2018-07-03T04:01:27.271Z,12.80
2018-07-03T04:03:55.799Z,12.81
2018-07-03T04:06:24.738Z,12.86
2018-07-03T04:08:53.342Z,12.83
2018-07-03T04:11:21.895Z,12.87
2018-07-03T04:13:50.396Z,12.86
2018-07-03T04:16:18.925Z,12.90
2018-07-03T04:18:47.617Z,12.95
2018-07-03T04:21:46.719Z,12.98
2018-07-03T04:24:15.221Z,12.98
2018-07-03T04:26:43.788Z,13.05
2018-07-03T04:29:12.238Z,13.06
2018-07-03T04:31:40.896Z,13.12
2018-07-03T04:34:09.433Z,13.13
2018-07-03T04:36:37.979Z,13.18
2018-07-03T04:39:08.952Z,13.23
2018-07-03T04:41:38.452Z,13.27
2018-07-03T04:44:07.913Z,13.30
2018-07-03T04:46:36.497Z,13.35
2018-07-03T04:49:05.177Z,13.36
2018-07-03T04:51:33.800Z,13.45
2018-07-03T04:54:02.860Z,13.50
2018-07-03T04:56:31.756Z,13.61
2018-07-03T04:59:00.624Z,13.72
2018-07-03T05:01:29.342Z,13.83
2018-07-03T05:03:58.180Z,13.99
2018-07-03T05:06:26.821Z,14.45
2018-07-03T05:08:55.355Z,15.59
2018-07-03T05:11:23.980Z,15.92
2018-07-03T05:13:52.704Z,15.99
2018-07-03T05:16:21.311Z,15.89
2018-07-03T05:18:50.011Z,15.76
2018-07-03T05:21:18.839Z,15.66
2018-07-03T05:23:47.480Z,15.56
2018-07-03T05:26:16.131Z,15.62
2018-07-03T05:28:44.712Z,15.58
2018-07-03T05:31:13.211Z,15.57
2018-07-03T05:33:41.978Z,15.67
2018-07-03T05:36:10.533Z,15.78
2018-07-03T05:38:39.036Z,15.90
2018-07-03T05:41:07.594Z,16.52
2018-07-03T05:43:36.148Z,17.95
2018-07-03T05:46:04.986Z,19.02
2018-07-03T05:48:33.769Z,19.69
2018-07-03T05:51:02.452Z,20.32
2018-07-03T05:53:31.086Z,20.58
2018-07-03T05:55:59.588Z,20.79
2018-07-03T05:58:28.131Z,20.78
2018-07-03T06:00:56.598Z,21.24
2018-07-03T06:03:25.099Z,21.84
2018-07-03T06:05:53.696Z,22.58
2018-07-03T06:08:22.228Z,23.60
2018-07-03T06:10:50.975Z,23.94
2018-07-03T06:13:19.906Z,24.00
2018-07-03T06:15:48.487Z,24.76
2018-07-03T06:18:17.033Z,24.60
2018-07-03T06:20:45.601Z,25.18
2018-07-03T06:23:14.194Z,25.27
2018-07-03T06:25:43.059Z,25.25
2018-07-03T06:28:11.626Z,25.21
2018-07-03T06:30:41.795Z,25.59
2018-07-03T06:33:10.931Z,25.32
2018-07-03T06:35:39.464Z,24.48
2018-07-03T06:38:07.955Z,24.17
2018-07-03T06:40:36.433Z,23.22
2018-07-03T06:43:05.047Z,23.11
2018-07-03T06:45:33.912Z,23.38
2018-07-03T06:48:02.501Z,23.22
2018-07-03T06:50:31.046Z,23.20
2018-07-03T06:52:59.967Z,23.52
2018-07-03T06:55:28.688Z,23.32
2018-07-03T06:57:57.275Z,23.31
2018-07-03T07:00:25.793Z,23.55
2018-07-03T07:02:54.275Z,23.86
2018-07-03T07:05:22.808Z,23.77
2018-07-03T07:07:51.634Z,23.63
2018-07-03T07:10:20.293Z,24.19
2018-07-03T07:12:48.814Z,24.30
2018-07-03T07:15:17.387Z,24.08
2018-07-03T07:17:45.995Z,24.16
2018-07-03T07:20:14.462Z,24.44
2018-07-03T07:22:42.932Z,24.48
2018-07-03T07:25:11.469Z,24.38
2018-07-03T07:27:40.008Z,24.75
2018-07-03T07:30:08.635Z,25.09
2018-07-03T07:32:37.213Z,25.84
2018-07-03T07:35:06.004Z,26.46
2018-07-03T07:37:34.722Z,26.68
2018-07-03T07:40:03.331Z,26.64
2018-07-03T07:42:32.096Z,26.87
2018-07-03T07:45:00.690Z,26.11
2018-07-03T07:47:29.228Z,26.67
2018-07-03T07:49:57.954Z,26.59
2018-07-03T07:52:26.558Z,26.43
2018-07-03T07:54:55.096Z,25.88
2018-07-03T07:57:23.666Z,25.65
2018-07-03T07:59:52.251Z,25.71
2018-07-03T08:02:20.757Z,26.30
2018-07-03T08:04:49.305Z,26.48
2018-07-03T08:07:18.078Z,26.95
2018-07-03T08:09:46.621Z,27.22
2018-07-03T08:12:15.086Z,26.56
2018-07-03T08:14:43.637Z,26.23
2018-07-03T08:17:12.264Z,25.96
2018-07-03T08:19:40.954Z,26.04
2018-07-03T08:22:09.534Z,26.14
2018-07-03T08:24:38.064Z,25.68
2018-07-03T08:27:06.856Z,25.94
2018-07-03T08:29:35.392Z,25.62
2018-07-03T08:32:03.942Z,25.85
2018-07-03T08:34:32.474Z,25.71
2018-07-03T08:37:01.146Z,25.80
2018-07-03T08:39:29.709Z,25.82
2018-07-03T08:41:58.333Z,25.60
2018-07-03T08:44:26.834Z,25.73
2018-07-03T08:46:55.438Z,25.66
2018-07-03T08:49:23.994Z,25.22
2018-07-03T08:51:52.778Z,25.37
2018-07-03T08:54:21.283Z,25.66
2018-07-03T08:56:49.820Z,26.01
2018-07-03T08:59:18.493Z,25.82
2018-07-03T09:01:47.118Z,25.72
2018-07-03T09:04:15.814Z,25.62
2018-07-03T09:06:44.398Z,25.79
2018-07-03T09:09:13.142Z,25.42
2018-07-03T09:11:41.712Z,25.75
2018-07-03T09:14:10.531Z,25.85
2018-07-03T09:16:39.437Z,25.97
2018-07-03T09:19:08.307Z,25.76
2018-07-03T09:21:36.749Z,25.86
2018-07-03T09:24:05.271Z,25.86
2018-07-03T09:26:33.846Z,25.96
2018-07-03T09:29:02.355Z,25.73
2018-07-03T09:31:30.966Z,25.79
2018-07-03T09:33:59.872Z,25.70
2018-07-03T09:36:28.429Z,25.80
2018-07-03T09:38:57.072Z,25.75
2018-07-03T09:41:25.677Z,25.86
2018-07-03T09:43:54.181Z,25.49
2018-07-03T09:46:22.907Z,25.75
2018-07-03T09:48:51.498Z,25.86
2018-07-03T09:51:20.039Z,25.77
2018-07-03T09:53:48.907Z,25.84
2018-07-03T09:56:17.483Z,25.94
2018-07-03T09:58:46.077Z,26.10
2018-07-03T10:01:20.080Z,25.79
2018-07-03T10:03:48.904Z,25.54
2018-07-03T10:06:17.889Z,25.55
2018-07-03T10:08:46.486Z,25.68
2018-07-03T10:11:15.361Z,25.10
2018-07-03T10:13:43.914Z,25.57
2018-07-03T10:16:12.590Z,25.76
2018-07-03T10:18:41.233Z,25.78
2018-07-03T10:21:10.015Z,25.86
2018-07-03T10:23:38.522Z,25.83
2018-07-03T10:26:07.103Z,26.10
2018-07-03T10:28:36.142Z,26.43
2018-07-03T10:31:04.764Z,26.42
2018-07-03T10:33:33.570Z,26.19
2018-07-03T10:36:02.325Z,26.46
2018-07-03T10:38:30.911Z,26.56
2018-07-03T10:40:59.580Z,26.68
2018-07-03T10:43:28.161Z,26.83
2018-07-03T10:45:56.717Z,26.97
2018-07-03T10:48:25.631Z,26.56
2018-07-03T10:50:54.206Z,26.21
2018-07-03T10:53:23.020Z,26.14
2018-07-03T10:55:51.643Z,26.40
2018-07-03T10:58:20.290Z,26.58
2018-07-03T11:00:48.881Z,26.51
2018-07-03T11:03:17.497Z,25.59
2018-07-03T11:05:46.073Z,26.02
2018-07-03T11:08:14.723Z,26.29
2018-07-03T11:10:43.654Z,26.49
2018-07-03T11:13:12.258Z,26.39
2018-07-03T11:15:41.110Z,26.42
2018-07-03T11:18:09.867Z,26.72
2018-07-03T11:20:38.476Z,26.99
2018-07-03T11:23:07.088Z,26.96
2018-07-03T11:25:36.309Z,26.82
2018-07-03T11:28:05.129Z,26.90
2018-07-03T11:30:33.792Z,26.81
2018-07-03T11:33:02.574Z,26.30
2018-07-03T11:35:31.427Z,26.07
2018-07-03T11:37:59.851Z,26.19
2018-07-03T11:40:36.043Z,26.29
2018-07-03T11:43:08.829Z,26.40
2018-07-03T11:45:37.391Z,26.45
2018-07-03T11:48:06.310Z,26.26
2018-07-03T11:50:34.937Z,26.23
2018-07-03T11:53:03.635Z,26.46
2018-07-03T11:55:32.128Z,26.54
2018-07-03T11:58:01.060Z,26.63
2018-07-03T12:00:29.576Z,26.32
2018-07-03T12:02:58.190Z,26.50
2018-07-03T12:05:26.662Z,26.49
2018-07-03T12:07:55.590Z,26.56
2018-07-03T12:10:24.266Z,26.64
2018-07-03T12:12:52.823Z,26.78
2018-07-03T12:15:21.351Z,26.66
2018-07-03T12:17:50.071Z,26.53
2018-07-03T12:20:18.713Z,26.55
2018-07-03T12:22:47.247Z,26.77
2018-07-03T12:25:16.040Z,26.64
2018-07-03T12:27:44.634Z,26.08
2018-07-03T12:30:13.684Z,25.83
2018-07-03T12:32:42.225Z,26.40
2018-07-03T12:35:11.483Z,26.59
2018-07-03T12:37:40.086Z,26.88
2018-07-03T12:40:08.657Z,26.93
2018-07-03T12:42:37.273Z,26.86
2018-07-03T12:45:06.229Z,26.63
2018-07-03T12:47:34.816Z,26.86
2018-07-03T12:50:03.577Z,26.80
2018-07-03T12:52:32.102Z,26.93
2018-07-03T12:55:00.643Z,26.87
2018-07-03T12:57:29.219Z,26.78
2018-07-03T12:59:57.829Z,26.88
2018-07-03T13:02:26.382Z,26.75
2018-07-03T13:04:54.929Z,26.86
2018-07-03T13:07:23.533Z,26.74
2018-07-03T13:09:52.098Z,26.80
2018-07-03T13:12:20.773Z,26.46
2018-07-03T13:14:49.356Z,26.67
2018-07-03T13:17:17.969Z,26.80
2018-07-03T13:19:46.515Z,26.74
2018-07-03T13:22:15.023Z,26.80
2018-07-03T13:24:43.756Z,26.52
2018-07-03T13:27:12.456Z,26.60
2018-07-03T13:29:40.935Z,26.58
2018-07-03T13:32:09.509Z,26.25
2018-07-03T13:34:37.991Z,26.36
2018-07-03T13:37:06.567Z,26.34
2018-07-03T13:39:35.146Z,26.41
2018-07-03T13:42:03.990Z,26.53
2018-07-03T13:44:32.516Z,26.60
2018-07-03T13:47:01.149Z,26.72
2018-07-03T13:49:29.905Z,26.72
2018-07-03T13:51:58.502Z,26.79
2018-07-03T13:54:27.219Z,26.76
2018-07-03T13:56:55.962Z,26.99
2018-07-03T13:59:24.767Z,26.67
2018-07-03T14:01:53.383Z,26.83
2018-07-03T14:04:21.976Z,27.05
2018-07-03T14:06:50.557Z,27.13
2018-07-03T14:09:19.058Z,27.00
2018-07-03T14:11:47.622Z,27.16
2018-07-03T14:14:16.143Z,26.79
2018-07-03T14:16:44.594Z,26.86
2018-07-03T14:19:15.718Z,26.70
2018-07-03T14:21:44.191Z,26.60
2018-07-03T14:24:13.044Z,26.58
2018-07-03T14:26:41.651Z,26.61
2018-07-03T14:29:10.374Z,26.84
2018-07-03T14:31:38.916Z,26.91
2018-07-03T14:34:07.609Z,26.91
2018-07-03T14:36:36.396Z,27.04
2018-07-03T14:39:09.304Z,27.05
2018-07-03T14:41:37.768Z,26.98
2018-07-03T14:44:06.794Z,26.83
2018-07-03T14:46:35.423Z,26.83
2018-07-03T14:49:04.524Z,26.99
2018-07-03T14:51:33.108Z,27.00
2018-07-03T14:54:01.719Z,27.03
2018-07-03T14:56:30.709Z,27.02
2018-07-03T14:58:59.701Z,27.16
2018-07-03T15:01:28.502Z,27.10
2018-07-03T15:03:57.074Z,27.08
2018-07-03T15:06:26.025Z,27.11
2018-07-03T15:08:54.783Z,27.11
2018-07-03T15:11:23.400Z,27.14
2018-07-03T15:13:52.181Z,27.20
2018-07-03T15:16:21.061Z,27.08
2018-07-03T15:18:54.898Z,27.13
2018-07-03T15:21:23.640Z,26.98
2018-07-03T15:23:52.242Z,26.90
2018-07-03T15:26:21.179Z,26.87
2018-07-03T15:28:50.537Z,26.80
2018-07-03T15:31:19.135Z,26.89
2018-07-03T15:33:47.841Z,26.82
2018-07-03T15:36:16.695Z,26.77
2018-07-03T15:38:45.577Z,26.67
2018-07-03T15:41:14.235Z,26.68
2018-07-03T15:43:52.880Z,26.66
2018-07-03T15:46:21.689Z,26.67
2018-07-03T15:48:50.366Z,26.61
2018-07-03T15:51:18.956Z,26.66
2018-07-03T15:53:47.637Z,26.70
2018-07-03T15:56:16.947Z,26.71
2018-07-03T15:58:45.623Z,26.67
2018-07-03T16:01:14.200Z,26.69
2018-07-03T16:03:53.054Z,26.64
2018-07-03T16:06:33.199Z,26.72
2018-07-03T16:09:08.413Z,26.77
2018-07-03T16:11:37.827Z,26.79
2018-07-03T16:14:06.484Z,26.76
2018-07-03T16:16:35.036Z,26.68
2018-07-03T16:19:08.895Z,26.70
2018-07-03T16:21:37.497Z,26.67
2018-07-03T16:24:06.795Z,26.61
2018-07-03T16:26:35.439Z,26.63
2018-07-03T16:29:05.225Z,26.60
2018-07-03T16:31:33.704Z,26.64
2018-07-03T16:34:02.689Z,26.64
2018-07-03T16:36:31.278Z,26.60
2018-07-03T16:38:59.956Z,26.56
2018-07-03T16:41:28.551Z,26.51
2018-07-03T16:43:57.038Z,26.51
2018-07-03T16:46:25.703Z,26.57
2018-07-03T16:48:54.699Z,26.58
2018-07-03T16:51:23.219Z,26.53
2018-07-03T16:53:51.716Z,26.53
2018-07-03T16:56:20.342Z,26.63
2018-07-03T16:58:49.342Z,26.53
2018-07-03T17:01:18.059Z,26.56
2018-07-03T17:03:46.838Z,26.56
2018-07-03T17:06:15.668Z,26.44
2018-07-03T17:08:44.098Z,26.47
2018-07-03T17:11:12.860Z,26.39
2018-07-03T17:13:41.432Z,26.37
2018-07-03T17:16:10.094Z,26.26
2018-07-03T17:18:42.914Z,26.28
2018-07-03T17:21:11.427Z,26.28
2018-07-03T17:23:40.007Z,26.28
2018-07-03T17:26:08.969Z,26.29
2018-07-03T17:28:37.726Z,26.24
2018-07-03T17:31:06.528Z,26.21
2018-07-03T17:33:35.478Z,26.20
2018-07-03T17:36:04.535Z,26.20
2018-07-03T17:38:33.063Z,26.12
2018-07-03T17:41:12.900Z,26.13
2018-07-03T17:44:04.791Z,26.10
2018-07-03T17:46:33.427Z,26.03
2018-07-03T17:49:01.944Z,26.05
2018-07-03T17:51:30.643Z,26.00
2018-07-03T17:53:59.619Z,26.00
2018-07-03T17:56:28.784Z,25.94
2018-07-03T17:58:57.534Z,25.94
2018-07-03T18:01:26.235Z,25.83
2018-07-03T18:03:55.047Z,25.86
2018-07-03T18:06:23.881Z,25.77
2018-07-03T18:08:52.621Z,25.70
2018-07-03T18:11:21.877Z,25.69
2018-07-03T18:13:50.546Z,25.61
2018-07-03T18:16:19.753Z,25.65
2018-07-03T18:19:50.899Z,25.55
2018-07-03T18:22:19.670Z,25.57
2018-07-03T18:24:48.334Z,25.53
2018-07-03T18:27:17.296Z,25.53
2018-07-03T18:29:46.004Z,25.52
2018-07-03T18:32:14.537Z,25.47
2018-07-03T18:34:43.045Z,25.42
2018-07-03T18:37:11.518Z,25.38
2018-07-03T18:39:40.290Z,25.25
2018-07-03T18:42:09.099Z,25.27
2018-07-03T18:44:38.110Z,25.23
2018-07-03T18:47:06.711Z,25.18
2018-07-03T18:49:35.316Z,25.06
2018-07-03T18:52:04.220Z,25.03
2018-07-03T18:54:32.737Z,24.97
2018-07-03T18:57:01.337Z,24.88
2018-07-03T18:59:29.814Z,24.88
2018-07-03T19:01:58.563Z,24.78
2018-07-03T19:04:27.285Z,24.74
2018-07-03T19:06:56.234Z,24.70
2018-07-03T19:09:24.719Z,24.64
2018-07-03T19:11:53.493Z,24.54
2018-07-03T19:14:22.455Z,24.54
2018-07-03T19:16:51.063Z,24.42
2018-07-03T19:19:19.562Z,24.34
2018-07-03T19:21:48.177Z,24.26
2018-07-03T19:24:16.989Z,24.18
2018-07-03T19:26:45.610Z,24.04
2018-07-03T19:29:14.177Z,23.97
2018-07-03T19:31:43.001Z,23.90
2018-07-03T19:34:11.642Z,23.81
2018-07-03T19:36:40.152Z,23.70
2018-07-03T19:39:11.103Z,23.62
2018-07-03T19:41:40.761Z,23.56
2018-07-03T19:44:09.539Z,23.45
2018-07-03T19:46:38.220Z,23.38
2018-07-03T19:49:07.130Z,23.28
2018-07-03T19:51:36.110Z,23.22
2018-07-03T19:54:04.782Z,23.14
2018-07-03T19:56:36.254Z,23.02
2018-07-03T19:59:04.896Z,22.93
2018-07-03T20:01:33.703Z,22.82
2018-07-03T20:04:02.607Z,22.69
2018-07-03T20:06:31.251Z,22.66
2018-07-03T20:08:59.774Z,22.61
2018-07-03T20:11:28.357Z,22.52
2018-07-03T20:13:57.818Z,22.54
2018-07-03T20:16:26.790Z,22.64
2018-07-03T20:18:55.982Z,22.67
2018-07-03T20:21:24.651Z,22.96
2018-07-03T20:23:53.242Z,23.05
2018-07-03T20:26:21.995Z,23.10
2018-07-03T20:28:50.839Z,23.14
2018-07-03T20:31:19.448Z,23.17
2018-07-03T20:33:50.863Z,23.20
2018-07-03T20:36:20.526Z,23.11
2018-07-03T20:38:52.544Z,23.16
2018-07-03T20:41:23.149Z,22.95
2018-07-03T20:43:53.619Z,22.59
2018-07-03T20:46:23.418Z,21.83
2018-07-03T20:48:53.332Z,21.88
2018-07-03T20:51:22.636Z,22.19
2018-07-03T20:53:51.484Z,22.38
2018-07-03T20:56:22.663Z,22.36
2018-07-03T20:58:53.329Z,22.29
2018-07-03T21:01:22.362Z,22.30
2018-07-03T21:03:54.055Z,22.19
2018-07-03T21:06:23.646Z,22.15
2018-07-03T21:08:54.719Z,22.05
2018-07-03T21:11:23.470Z,21.95
2018-07-03T21:13:53.259Z,21.86
2018-07-03T21:16:22.270Z,21.83
2018-07-03T21:18:51.561Z,21.77
2018-07-03T21:21:20.547Z,21.69
2018-07-03T21:23:49.133Z,21.62
2018-07-03T21:26:17.614Z,21.53
2018-07-03T21:28:46.543Z,21.51
2018-07-03T21:31:15.104Z,21.49
2018-07-03T21:33:44.238Z,21.37
2018-07-03T21:36:12.970Z,21.28
2018-07-03T21:38:41.745Z,21.22
2018-07-03T21:41:10.406Z,21.14
2018-07-03T21:43:39.009Z,21.08
2018-07-03T21:46:07.481Z,21.00
2018-07-03T21:48:36.385Z,20.95
2018-07-03T21:51:05.382Z,20.81
2018-07-03T21:53:33.963Z,20.81
2018-07-03T21:56:02.497Z,20.69
2018-07-03T21:58:31.081Z,20.68
2018-07-03T22:00:59.757Z,20.58
2018-07-03T22:03:28.445Z,20.59
2018-07-03T22:05:57.044Z,20.49
2018-07-03T22:08:25.634Z,20.45
2018-07-03T22:10:54.210Z,20.37
2018-07-03T22:13:22.758Z,20.31
2018-07-03T22:15:51.324Z,20.31
2018-07-03T22:18:19.922Z,20.20
2018-07-03T22:20:48.550Z,20.05
2018-07-03T22:23:17.171Z,20.00
2018-07-03T22:25:45.702Z,19.96
2018-07-03T22:28:14.201Z,19.92
2018-07-03T22:30:42.694Z,19.93
2018-07-03T22:33:11.107Z,19.86
2018-07-03T22:35:39.589Z,19.83
2018-07-03T22:38:08.049Z,19.82
2018-07-03T22:40:36.425Z,19.75
2018-07-03T22:43:04.889Z,19.76
2018-07-03T22:45:33.248Z,19.68
2018-07-03T22:48:01.616Z,19.67
2018-07-03T22:50:30.267Z,19.66
2018-07-03T22:52:58.674Z,19.59
2018-07-03T22:55:27.017Z,19.59
2018-07-03T22:57:55.516Z,19.55
2018-07-03T23:00:24.022Z,19.58
2018-07-03T23:02:52.437Z,19.51
2018-07-03T23:05:20.919Z,19.49
2018-07-03T23:07:49.410Z,19.41
2018-07-03T23:10:17.830Z,19.35
2018-07-03T23:12:46.284Z,19.35
2018-07-03T23:15:14.658Z,19.32
2018-07-03T23:17:43.048Z,19.31
2018-07-03T23:20:11.642Z,19.30
2018-07-03T23:22:40.168Z,19.31
2018-07-03T23:25:08.575Z,19.25
2018-07-03T23:27:37.014Z,19.15
2018-07-03T23:30:05.383Z,19.15
2018-07-03T23:32:33.845Z,19.10
2018-07-03T23:35:02.288Z,18.89
2018-07-03T23:37:30.690Z,18.76
2018-07-03T23:39:59.051Z,18.79
2018-07-03T23:42:27.419Z,18.70
2018-07-03T23:44:55.809Z,18.65
2018-07-03T23:47:35.457Z,18.55
2018-07-03T23:50:15.064Z,18.54
2018-07-03T23:52:54.818Z,18.45
2018-07-03T23:55:34.589Z,18.34
2018-07-03T23:58:14.241Z,18.25
